sensor_id;sensor_type;location;lat;lon;timestamp;P1;durP1;ratioP1;P2;durP2;ratioP2
63157;SDS011;49381;49.338;8.794;2022-07-06T00:00:53;6.95;;;2.90;;
63157;SDS011;49381;49.338;8.794;2022-07-06T00:02:55;6.15;;;3.63;;
63157;SDS011;49381;49.338;8.794;2022-07-06T00:04:55;5.90;;;3.58;;
63157;SDS011;49381;49.338;8.794;2022-07-06T00:06:55;5.80;;;3.63;;
63157;SDS011;49381;49.338;8.794;2022-07-06T00:08:56;4.72;;;2.83;;
63157;SDS011;49381;49.338;8.794;2022-07-06T00:10:56;4.43;;;2.97;;
63157;SDS011;49381;49.338;8.794;2022-07-06T00:12:57;6.35;;;2.28;;
63157;SDS011;49381;49.338;8.794;2022-07-06T00:14:57;5.68;;;2.92;;
63157;SDS011;49381;49.338;8.794;2022-07-06T00:16:58;5.15;;;2.85;;
63157;SDS011;49381;49.338;8.794;2022-07-06T00:19:00;6.70;;;2.60;;
63157;SDS011;49381;49.338;8.794;2022-07-06T00:21:00;3.58;;;2.58;;
63157;SDS011;49381;49.338;8.794;2022-07-06T00:23:00;5.30;;;2.70;;
63157;SDS011;49381;49.338;8.794;2022-07-06T00:25:01;3.80;;;2.15;;
63157;SDS011;49381;49.338;8.794;2022-07-06T00:27:01;3.80;;;2.70;;
63157;SDS011;49381;49.338;8.794;2022-07-06T00:29:02;7.03;;;2.60;;
63157;SDS011;49381;49.338;8.794;2022-07-06T00:31:02;4.88;;;2.90;;
63157;SDS011;49381;49.338;8.794;2022-07-06T00:33:03;4.25;;;2.25;;
63157;SDS011;49381;49.338;8.794;2022-07-06T00:35:05;6.45;;;2.83;;
63157;SDS011;49381;49.338;8.794;2022-07-06T00:37:06;4.70;;;2.55;;
63157;SDS011;49381;49.338;8.794;2022-07-06T00:39:06;5.55;;;3.08;;
63157;SDS011;49381;49.338;8.794;2022-07-06T00:41:07;3.28;;;2.40;;
63157;SDS011;49381;49.338;8.794;2022-07-06T00:43:07;4.47;;;2.75;;
63157;SDS011;49381;49.338;8.794;2022-07-06T00:45:08;3.58;;;2.60;;
63157;SDS011;49381;49.338;8.794;2022-07-06T00:47:09;4.90;;;2.25;;
63157;SDS011;49381;49.338;8.794;2022-07-06T00:49:10;4.05;;;2.20;;
63157;SDS011;49381;49.338;8.794;2022-07-06T00:51:11;3.22;;;2.63;;
63157;SDS011;49381;49.338;8.794;2022-07-06T00:53:12;3.55;;;2.00;;
63157;SDS011;49381;49.338;8.794;2022-07-06T00:55:14;3.72;;;2.20;;
63157;SDS011;49381;49.338;8.794;2022-07-06T00:57:15;3.35;;;2.20;;
63157;SDS011;49381;49.338;8.794;2022-07-06T00:59:16;4.35;;;2.45;;
63157;SDS011;49381;49.338;8.794;2022-07-06T01:01:16;5.03;;;2.78;;
63157;SDS011;49381;49.338;8.794;2022-07-06T01:03:16;5.00;;;2.80;;
63157;SDS011;49381;49.338;8.794;2022-07-06T01:05:17;6.05;;;2.90;;
63157;SDS011;49381;49.338;8.794;2022-07-06T01:07:19;6.72;;;2.70;;
63157;SDS011;49381;49.338;8.794;2022-07-06T01:09:19;4.50;;;2.38;;
63157;SDS011;49381;49.338;8.794;2022-07-06T01:11:19;7.00;;;2.60;;
63157;SDS011;49381;49.338;8.794;2022-07-06T01:13:20;3.60;;;2.10;;
63157;SDS011;49381;49.338;8.794;2022-07-06T01:15:21;4.82;;;2.85;;
63157;SDS011;49381;49.338;8.794;2022-07-06T01:17:24;7.28;;;2.83;;
63157;SDS011;49381;49.338;8.794;2022-07-06T01:19:25;7.22;;;3.20;;
63157;SDS011;49381;49.338;8.794;2022-07-06T01:21:27;4.20;;;3.00;;
63157;SDS011;49381;49.338;8.794;2022-07-06T01:23:28;3.30;;;2.80;;
63157;SDS011;49381;49.338;8.794;2022-07-06T01:25:28;5.97;;;2.83;;
63157;SDS011;49381;49.338;8.794;2022-07-06T01:27:28;4.38;;;2.90;;
63157;SDS011;49381;49.338;8.794;2022-07-06T01:29:29;4.53;;;3.08;;
63157;SDS011;49381;49.338;8.794;2022-07-06T01:31:29;4.95;;;3.45;;
63157;SDS011;49381;49.338;8.794;2022-07-06T01:33:30;5.90;;;3.03;;
63157;SDS011;49381;49.338;8.794;2022-07-06T01:35:31;5.97;;;3.97;;
63157;SDS011;49381;49.338;8.794;2022-07-06T01:37:36;6.57;;;3.10;;
63157;SDS011;49381;49.338;8.794;2022-07-06T01:39:36;6.38;;;3.28;;
63157;SDS011;49381;49.338;8.794;2022-07-06T01:41:37;4.90;;;2.97;;
63157;SDS011;49381;49.338;8.794;2022-07-06T01:43:37;6.25;;;3.30;;
63157;SDS011;49381;49.338;8.794;2022-07-06T01:45:38;7.05;;;4.20;;
63157;SDS011;49381;49.338;8.794;2022-07-06T01:47:38;7.53;;;4.65;;
63157;SDS011;49381;49.338;8.794;2022-07-06T01:49:38;6.63;;;4.10;;
63157;SDS011;49381;49.338;8.794;2022-07-06T01:51:39;6.88;;;4.47;;
63157;SDS011;49381;49.338;8.794;2022-07-06T01:53:41;5.50;;;3.55;;
63157;SDS011;49381;49.338;8.794;2022-07-06T01:55:41;5.65;;;3.92;;
63157;SDS011;49381;49.338;8.794;2022-07-06T01:57:42;5.90;;;3.58;;
63157;SDS011;49381;49.338;8.794;2022-07-06T01:59:42;8.48;;;4.25;;
63157;SDS011;49381;49.338;8.794;2022-07-06T02:01:42;6.20;;;3.92;;
63157;SDS011;49381;49.338;8.794;2022-07-06T02:03:43;9.77;;;4.45;;
63157;SDS011;49381;49.338;8.794;2022-07-06T02:05:44;8.32;;;3.63;;
63157;SDS011;49381;49.338;8.794;2022-07-06T02:07:44;8.57;;;3.70;;
63157;SDS011;49381;49.338;8.794;2022-07-06T02:09:46;10.18;;;4.75;;
63157;SDS011;49381;49.338;8.794;2022-07-06T02:11:46;8.60;;;4.20;;
63157;SDS011;49381;49.338;8.794;2022-07-06T02:13:46;6.38;;;3.78;;
63157;SDS011;49381;49.338;8.794;2022-07-06T02:15:47;4.82;;;3.53;;
63157;SDS011;49381;49.338;8.794;2022-07-06T02:17:47;7.43;;;3.65;;
63157;SDS011;49381;49.338;8.794;2022-07-06T02:19:47;6.22;;;3.40;;
63157;SDS011;49381;49.338;8.794;2022-07-06T02:21:48;8.27;;;3.75;;
63157;SDS011;49381;49.338;8.794;2022-07-06T02:23:48;7.95;;;4.22;;
63157;SDS011;49381;49.338;8.794;2022-07-06T02:25:50;7.90;;;3.75;;
63157;SDS011;49381;49.338;8.794;2022-07-06T02:27:50;7.32;;;3.85;;
63157;SDS011;49381;49.338;8.794;2022-07-06T02:29:50;8.27;;;3.65;;
63157;SDS011;49381;49.338;8.794;2022-07-06T02:31:51;5.40;;;3.33;;
63157;SDS011;49381;49.338;8.794;2022-07-06T02:33:51;6.30;;;3.38;;
63157;SDS011;49381;49.338;8.794;2022-07-06T02:35:51;4.55;;;2.92;;
63157;SDS011;49381;49.338;8.794;2022-07-06T02:37:52;5.07;;;3.35;;
63157;SDS011;49381;49.338;8.794;2022-07-06T02:39:52;7.43;;;3.35;;
63157;SDS011;49381;49.338;8.794;2022-07-06T02:41:54;5.38;;;3.65;;
63157;SDS011;49381;49.338;8.794;2022-07-06T02:43:54;8.10;;;3.72;;
63157;SDS011;49381;49.338;8.794;2022-07-06T02:45:54;6.25;;;3.35;;
63157;SDS011;49381;49.338;8.794;2022-07-06T02:47:55;5.88;;;3.53;;
63157;SDS011;49381;49.338;8.794;2022-07-06T02:49:55;7.15;;;3.15;;
63157;SDS011;49381;49.338;8.794;2022-07-06T02:51:55;7.65;;;3.63;;
63157;SDS011;49381;49.338;8.794;2022-07-06T02:53:56;6.53;;;3.80;;
63157;SDS011;49381;49.338;8.794;2022-07-06T02:55:56;7.40;;;4.20;;
63157;SDS011;49381;49.338;8.794;2022-07-06T02:57:58;6.88;;;3.47;;
63157;SDS011;49381;49.338;8.794;2022-07-06T02:59:58;6.78;;;3.63;;
63157;SDS011;49381;49.338;8.794;2022-07-06T03:01:58;6.57;;;3.42;;
63157;SDS011;49381;49.338;8.794;2022-07-06T03:03:59;5.95;;;3.85;;
63157;SDS011;49381;49.338;8.794;2022-07-06T03:05:59;6.68;;;3.83;;
63157;SDS011;49381;49.338;8.794;2022-07-06T03:07:59;4.80;;;3.58;;
63157;SDS011;49381;49.338;8.794;2022-07-06T03:10:00;7.63;;;3.45;;
63157;SDS011;49381;49.338;8.794;2022-07-06T03:12:00;5.68;;;3.13;;
63157;SDS011;49381;49.338;8.794;2022-07-06T03:14:02;6.88;;;3.67;;
63157;SDS011;49381;49.338;8.794;2022-07-06T03:16:02;6.60;;;3.40;;
63157;SDS011;49381;49.338;8.794;2022-07-06T03:18:03;6.13;;;2.95;;
63157;SDS011;49381;49.338;8.794;2022-07-06T03:20:03;5.32;;;3.13;;
63157;SDS011;49381;49.338;8.794;2022-07-06T03:22:05;4.82;;;3.10;;
63157;SDS011;49381;49.338;8.794;2022-07-06T03:24:05;4.70;;;3.10;;
63157;SDS011;49381;49.338;8.794;2022-07-06T03:26:05;6.55;;;3.53;;
63157;SDS011;49381;49.338;8.794;2022-07-06T03:28:06;8.35;;;3.28;;
63157;SDS011;49381;49.338;8.794;2022-07-06T03:30:08;5.93;;;3.33;;
63157;SDS011;49381;49.338;8.794;2022-07-06T03:32:09;6.65;;;3.15;;
63157;SDS011;49381;49.338;8.794;2022-07-06T03:34:09;4.70;;;2.80;;
63157;SDS011;49381;49.338;8.794;2022-07-06T03:36:09;7.07;;;3.67;;
63157;SDS011;49381;49.338;8.794;2022-07-06T03:38:10;5.30;;;3.10;;
63157;SDS011;49381;49.338;8.794;2022-07-06T03:40:11;5.20;;;3.22;;
63157;SDS011;49381;49.338;8.794;2022-07-06T03:42:11;4.75;;;3.30;;
63157;SDS011;49381;49.338;8.794;2022-07-06T03:44:12;5.28;;;2.90;;
63157;SDS011;49381;49.338;8.794;2022-07-06T03:46:13;3.92;;;2.97;;
63157;SDS011;49381;49.338;8.794;2022-07-06T03:48:14;5.90;;;3.50;;
63157;SDS011;49381;49.338;8.794;2022-07-06T03:50:14;8.57;;;3.10;;
63157;SDS011;49381;49.338;8.794;2022-07-06T03:52:14;6.43;;;3.80;;
63157;SDS011;49381;49.338;8.794;2022-07-06T03:54:15;5.05;;;3.30;;
63157;SDS011;49381;49.338;8.794;2022-07-06T03:56:15;4.80;;;2.90;;
63157;SDS011;49381;49.338;8.794;2022-07-06T03:58:15;7.30;;;3.20;;
63157;SDS011;49381;49.338;8.794;2022-07-06T04:00:17;5.88;;;3.35;;
63157;SDS011;49381;49.338;8.794;2022-07-06T04:02:19;6.85;;;2.88;;
63157;SDS011;49381;49.338;8.794;2022-07-06T04:04:19;5.78;;;3.13;;
63157;SDS011;49381;49.338;8.794;2022-07-06T04:06:20;5.55;;;3.33;;
63157;SDS011;49381;49.338;8.794;2022-07-06T04:08:20;5.03;;;3.00;;
63157;SDS011;49381;49.338;8.794;2022-07-06T04:10:20;5.03;;;2.90;;
63157;SDS011;49381;49.338;8.794;2022-07-06T04:12:21;4.72;;;2.65;;
63157;SDS011;49381;49.338;8.794;2022-07-06T04:14:21;6.72;;;3.20;;
63157;SDS011;49381;49.338;8.794;2022-07-06T04:16:21;5.22;;;3.10;;
63157;SDS011;49381;49.338;8.794;2022-07-06T04:18:23;5.50;;;3.20;;
63157;SDS011;49381;49.338;8.794;2022-07-06T04:20:24;8.77;;;3.13;;
63157;SDS011;49381;49.338;8.794;2022-07-06T04:22:24;4.38;;;2.90;;
63157;SDS011;49381;49.338;8.794;2022-07-06T04:24:25;6.13;;;2.80;;
63157;SDS011;49381;49.338;8.794;2022-07-06T04:26:25;5.60;;;2.70;;
63157;SDS011;49381;49.338;8.794;2022-07-06T04:28:25;4.63;;;2.72;;
63157;SDS011;49381;49.338;8.794;2022-07-06T04:30:26;16.40;;;3.50;;
63157;SDS011;49381;49.338;8.794;2022-07-06T04:32:26;16.30;;;3.65;;
63157;SDS011;49381;49.338;8.794;2022-07-06T04:34:28;16.20;;;3.20;;
63157;SDS011;49381;49.338;8.794;2022-07-06T04:36:28;6.35;;;3.20;;
63157;SDS011;49381;49.338;8.794;2022-07-06T04:38:28;9.23;;;3.20;;
63157;SDS011;49381;49.338;8.794;2022-07-06T04:40:29;8.35;;;3.70;;
63157;SDS011;49381;49.338;8.794;2022-07-06T04:42:29;4.38;;;2.60;;
63157;SDS011;49381;49.338;8.794;2022-07-06T04:44:29;8.82;;;2.95;;
63157;SDS011;49381;49.338;8.794;2022-07-06T04:46:30;7.07;;;2.92;;
63157;SDS011;49381;49.338;8.794;2022-07-06T04:48:30;8.45;;;3.20;;
63157;SDS011;49381;49.338;8.794;2022-07-06T04:50:32;5.40;;;2.88;;
63157;SDS011;49381;49.338;8.794;2022-07-06T04:52:32;6.95;;;3.20;;
63157;SDS011;49381;49.338;8.794;2022-07-06T04:54:33;8.45;;;3.28;;
63157;SDS011;49381;49.338;8.794;2022-07-06T04:56:33;7.55;;;4.32;;
63157;SDS011;49381;49.338;8.794;2022-07-06T04:58:33;6.88;;;3.30;;
63157;SDS011;49381;49.338;8.794;2022-07-06T05:00:34;5.00;;;3.20;;
63157;SDS011;49381;49.338;8.794;2022-07-06T05:02:34;5.30;;;2.95;;
63157;SDS011;49381;49.338;8.794;2022-07-06T05:04:35;6.07;;;2.80;;
63157;SDS011;49381;49.338;8.794;2022-07-06T05:06:36;5.25;;;3.17;;
63157;SDS011;49381;49.338;8.794;2022-07-06T05:08:37;11.38;;;3.05;;
63157;SDS011;49381;49.338;8.794;2022-07-06T05:10:37;3.90;;;2.80;;
63157;SDS011;49381;49.338;8.794;2022-07-06T05:12:37;5.68;;;2.80;;
63157;SDS011;49381;49.338;8.794;2022-07-06T05:14:38;6.82;;;3.67;;
63157;SDS011;49381;49.338;8.794;2022-07-06T05:16:38;5.28;;;2.50;;
63157;SDS011;49381;49.338;8.794;2022-07-06T05:18:39;6.80;;;3.00;;
63157;SDS011;49381;49.338;8.794;2022-07-06T05:20:39;6.78;;;3.30;;
63157;SDS011;49381;49.338;8.794;2022-07-06T05:22:41;6.72;;;2.90;;
63157;SDS011;49381;49.338;8.794;2022-07-06T05:24:41;6.43;;;3.03;;
63157;SDS011;49381;49.338;8.794;2022-07-06T05:26:41;4.78;;;2.10;;
63157;SDS011;49381;49.338;8.794;2022-07-06T05:28:42;7.95;;;3.53;;
63157;SDS011;49381;49.338;8.794;2022-07-06T05:30:42;7.30;;;3.10;;
63157;SDS011;49381;49.338;8.794;2022-07-06T05:32:43;5.10;;;2.88;;
63157;SDS011;49381;49.338;8.794;2022-07-06T05:34:43;3.88;;;2.13;;
63157;SDS011;49381;49.338;8.794;2022-07-06T05:36:43;7.30;;;2.95;;
63157;SDS011;49381;49.338;8.794;2022-07-06T05:38:45;4.45;;;2.17;;
63157;SDS011;49381;49.338;8.794;2022-07-06T05:40:45;7.28;;;2.30;;
63157;SDS011;49381;49.338;8.794;2022-07-06T05:42:46;7.25;;;2.30;;
63157;SDS011;49381;49.338;8.794;2022-07-06T05:44:46;3.97;;;2.30;;
63157;SDS011;49381;49.338;8.794;2022-07-06T05:46:46;6.72;;;2.80;;
63157;SDS011;49381;49.338;8.794;2022-07-06T05:48:47;5.38;;;2.80;;
63157;SDS011;49381;49.338;8.794;2022-07-06T05:50:47;5.28;;;2.10;;
63157;SDS011;49381;49.338;8.794;2022-07-06T05:52:55;2.92;;;1.83;;
63157;SDS011;49381;49.338;8.794;2022-07-06T05:54:57;5.13;;;2.63;;
63157;SDS011;49381;49.338;8.794;2022-07-06T05:56:58;7.70;;;2.35;;
63157;SDS011;49381;49.338;8.794;2022-07-06T05:58:58;4.78;;;2.15;;
63157;SDS011;49381;49.338;8.794;2022-07-06T06:00:58;3.65;;;2.10;;
63157;SDS011;49381;49.338;8.794;2022-07-06T06:02:59;7.07;;;2.75;;
63157;SDS011;49381;49.338;8.794;2022-07-06T06:04:59;4.65;;;2.35;;
63157;SDS011;49381;49.338;8.794;2022-07-06T06:06:59;2.88;;;2.00;;
63157;SDS011;49381;49.338;8.794;2022-07-06T06:09:00;3.55;;;1.95;;
63157;SDS011;49381;49.338;8.794;2022-07-06T06:11:01;4.32;;;2.30;;
63157;SDS011;49381;49.338;8.794;2022-07-06T06:13:02;4.63;;;1.80;;
63157;SDS011;49381;49.338;8.794;2022-07-06T06:15:03;7.15;;;2.17;;
63157;SDS011;49381;49.338;8.794;2022-07-06T06:17:04;5.50;;;2.13;;
63157;SDS011;49381;49.338;8.794;2022-07-06T06:19:05;3.88;;;1.92;;
63157;SDS011;49381;49.338;8.794;2022-07-06T06:21:05;4.30;;;1.92;;
63157;SDS011;49381;49.338;8.794;2022-07-06T06:23:05;4.63;;;2.30;;
63157;SDS011;49381;49.338;8.794;2022-07-06T06:25:06;5.57;;;1.70;;
63157;SDS011;49381;49.338;8.794;2022-07-06T06:27:08;6.90;;;2.00;;
63157;SDS011;49381;49.338;8.794;2022-07-06T06:29:08;7.03;;;1.95;;
63157;SDS011;49381;49.338;8.794;2022-07-06T06:31:08;5.28;;;1.77;;
63157;SDS011;49381;49.338;8.794;2022-07-06T06:33:09;3.97;;;1.80;;
63157;SDS011;49381;49.338;8.794;2022-07-06T06:35:10;4.22;;;1.85;;
63157;SDS011;49381;49.338;8.794;2022-07-06T06:37:11;2.85;;;1.58;;
63157;SDS011;49381;49.338;8.794;2022-07-06T06:39:11;5.05;;;1.67;;
63157;SDS011;49381;49.338;8.794;2022-07-06T06:41:11;4.05;;;1.80;;
63157;SDS011;49381;49.338;8.794;2022-07-06T06:43:13;9.75;;;1.90;;
63157;SDS011;49381;49.338;8.794;2022-07-06T06:45:13;4.78;;;1.80;;
63157;SDS011;49381;49.338;8.794;2022-07-06T06:47:14;2.95;;;1.85;;
63157;SDS011;49381;49.338;8.794;2022-07-06T06:49:14;4.53;;;1.50;;
63157;SDS011;49381;49.338;8.794;2022-07-06T06:51:15;2.83;;;1.70;;
63157;SDS011;49381;49.338;8.794;2022-07-06T06:53:15;3.92;;;1.65;;
63157;SDS011;49381;49.338;8.794;2022-07-06T06:55:15;3.78;;;1.65;;
63157;SDS011;49381;49.338;8.794;2022-07-06T06:57:16;5.95;;;1.60;;
63157;SDS011;49381;49.338;8.794;2022-07-06T06:59:17;4.68;;;1.60;;
63157;SDS011;49381;49.338;8.794;2022-07-06T07:01:18;3.70;;;1.83;;
63157;SDS011;49381;49.338;8.794;2022-07-06T07:03:18;5.03;;;1.92;;
63157;SDS011;49381;49.338;8.794;2022-07-06T07:05:18;3.03;;;1.58;;
63157;SDS011;49381;49.338;8.794;2022-07-06T07:07:19;6.93;;;2.00;;
63157;SDS011;49381;49.338;8.794;2022-07-06T07:09:19;5.55;;;1.58;;
63157;SDS011;49381;49.338;8.794;2022-07-06T07:11:19;5.35;;;1.50;;
63157;SDS011;49381;49.338;8.794;2022-07-06T07:13:20;6.30;;;1.75;;
63157;SDS011;49381;49.338;8.794;2022-07-06T07:15:21;4.45;;;2.00;;
63157;SDS011;49381;49.338;8.794;2022-07-06T07:17:22;4.38;;;1.67;;
63157;SDS011;49381;49.338;8.794;2022-07-06T07:19:22;4.25;;;1.92;;
63157;SDS011;49381;49.338;8.794;2022-07-06T07:21:22;6.75;;;1.77;;
63157;SDS011;49381;49.338;8.794;2022-07-06T07:23:23;3.05;;;1.38;;
63157;SDS011;49381;49.338;8.794;2022-07-06T07:25:23;7.15;;;1.70;;
63157;SDS011;49381;49.338;8.794;2022-07-06T07:27:23;4.88;;;1.60;;
63157;SDS011;49381;49.338;8.794;2022-07-06T07:29:24;5.85;;;1.63;;
63157;SDS011;49381;49.338;8.794;2022-07-06T07:31:25;3.72;;;1.30;;
63157;SDS011;49381;49.338;8.794;2022-07-06T07:33:26;8.40;;;1.60;;
63157;SDS011;49381;49.338;8.794;2022-07-06T07:35:26;4.25;;;1.70;;
63157;SDS011;49381;49.338;8.794;2022-07-06T07:37:27;4.05;;;1.80;;
63157;SDS011;49381;49.338;8.794;2022-07-06T07:39:27;4.38;;;1.70;;
63157;SDS011;49381;49.338;8.794;2022-07-06T07:41:27;4.07;;;1.88;;
63157;SDS011;49381;49.338;8.794;2022-07-06T07:43:28;8.65;;;2.10;;
63157;SDS011;49381;49.338;8.794;2022-07-06T07:45:28;3.20;;;1.83;;
63157;SDS011;49381;49.338;8.794;2022-07-06T07:47:30;7.57;;;2.25;;
63157;SDS011;49381;49.338;8.794;2022-07-06T07:49:30;5.50;;;2.15;;
63157;SDS011;49381;49.338;8.794;2022-07-06T07:51:30;5.00;;;2.40;;
63157;SDS011;49381;49.338;8.794;2022-07-06T07:53:31;4.47;;;1.70;;
63157;SDS011;49381;49.338;8.794;2022-07-06T07:55:31;5.25;;;1.83;;
63157;SDS011;49381;49.338;8.794;2022-07-06T07:57:31;4.22;;;1.73;;
63157;SDS011;49381;49.338;8.794;2022-07-06T07:59:32;5.75;;;1.80;;
63157;SDS011;49381;49.338;8.794;2022-07-06T08:01:32;3.28;;;1.52;;
63157;SDS011;49381;49.338;8.794;2022-07-06T08:03:34;7.13;;;2.03;;
63157;SDS011;49381;49.338;8.794;2022-07-06T08:05:35;5.22;;;1.67;;
63157;SDS011;49381;49.338;8.794;2022-07-06T08:07:35;5.88;;;1.90;;
63157;SDS011;49381;49.338;8.794;2022-07-06T08:09:35;6.00;;;1.85;;
63157;SDS011;49381;49.338;8.794;2022-07-06T08:11:36;5.30;;;1.90;;
63157;SDS011;49381;49.338;8.794;2022-07-06T08:13:36;6.93;;;1.65;;
63157;SDS011;49381;49.338;8.794;2022-07-06T08:15:37;7.22;;;1.65;;
63157;SDS011;49381;49.338;8.794;2022-07-06T08:17:37;6.15;;;1.90;;
63157;SDS011;49381;49.338;8.794;2022-07-06T08:19:39;5.47;;;2.13;;
63157;SDS011;49381;49.338;8.794;2022-07-06T08:21:39;6.15;;;2.97;;
63157;SDS011;49381;49.338;8.794;2022-07-06T08:23:39;5.57;;;2.90;;
63157;SDS011;49381;49.338;8.794;2022-07-06T08:25:40;6.95;;;2.28;;
63157;SDS011;49381;49.338;8.794;2022-07-06T08:27:40;4.45;;;1.83;;
63157;SDS011;49381;49.338;8.794;2022-07-06T08:29:40;6.28;;;2.20;;
63157;SDS011;49381;49.338;8.794;2022-07-06T08:31:41;4.47;;;2.10;;
63157;SDS011;49381;49.338;8.794;2022-07-06T08:33:41;7.70;;;2.10;;
63157;SDS011;49381;49.338;8.794;2022-07-06T08:35:43;4.72;;;2.25;;
63157;SDS011;49381;49.338;8.794;2022-07-06T08:37:43;4.78;;;1.77;;
63157;SDS011;49381;49.338;8.794;2022-07-06T08:39:43;4.85;;;2.10;;
63157;SDS011;49381;49.338;8.794;2022-07-06T08:41:44;3.25;;;1.70;;
63157;SDS011;49381;49.338;8.794;2022-07-06T08:43:44;3.58;;;2.10;;
63157;SDS011;49381;49.338;8.794;2022-07-06T08:45:45;5.03;;;1.98;;
63157;SDS011;49381;49.338;8.794;2022-07-06T08:47:49;4.55;;;2.08;;
63157;SDS011;49381;49.338;8.794;2022-07-06T08:49:49;5.90;;;2.47;;
63157;SDS011;49381;49.338;8.794;2022-07-06T08:51:51;6.07;;;2.40;;
63157;SDS011;49381;49.338;8.794;2022-07-06T08:53:52;4.15;;;1.85;;
63157;SDS011;49381;49.338;8.794;2022-07-06T08:55:54;8.80;;;2.20;;
63157;SDS011;49381;49.338;8.794;2022-07-06T08:57:54;4.22;;;1.95;;
63157;SDS011;49381;49.338;8.794;2022-07-06T08:59:55;6.22;;;2.00;;
63157;SDS011;49381;49.338;8.794;2022-07-06T09:01:55;5.07;;;1.80;;
63157;SDS011;49381;49.338;8.794;2022-07-06T09:03:56;4.57;;;1.90;;
63157;SDS011;49381;49.338;8.794;2022-07-06T09:05:58;8.48;;;2.80;;
63157;SDS011;49381;49.338;8.794;2022-07-06T09:08:03;6.25;;;2.60;;
63157;SDS011;49381;49.338;8.794;2022-07-06T09:10:04;4.47;;;1.95;;
63157;SDS011;49381;49.338;8.794;2022-07-06T09:12:09;7.00;;;2.15;;
63157;SDS011;49381;49.338;8.794;2022-07-06T09:14:11;9.13;;;2.65;;
63157;SDS011;49381;49.338;8.794;2022-07-06T09:16:12;3.88;;;1.90;;
63157;SDS011;49381;49.338;8.794;2022-07-06T09:18:15;5.55;;;2.50;;
63157;SDS011;49381;49.338;8.794;2022-07-06T09:20:15;8.35;;;2.92;;
63157;SDS011;49381;49.338;8.794;2022-07-06T09:22:25;4.95;;;2.20;;
63157;SDS011;49381;49.338;8.794;2022-07-06T09:24:28;4.50;;;2.08;;
63157;SDS011;49381;49.338;8.794;2022-07-06T09:26:28;7.70;;;2.65;;
63157;SDS011;49381;49.338;8.794;2022-07-06T09:28:39;3.53;;;2.10;;
63157;SDS011;49381;49.338;8.794;2022-07-06T09:30:40;6.00;;;2.60;;
63157;SDS011;49381;49.338;8.794;2022-07-06T09:32:41;3.00;;;1.98;;
63157;SDS011;49381;49.338;8.794;2022-07-06T09:34:43;4.82;;;2.22;;
63157;SDS011;49381;49.338;8.794;2022-07-06T09:36:46;4.65;;;2.25;;
63157;SDS011;49381;49.338;8.794;2022-07-06T09:38:48;6.50;;;2.38;;
63157;SDS011;49381;49.338;8.794;2022-07-06T09:40:49;3.80;;;1.98;;
63157;SDS011;49381;49.338;8.794;2022-07-06T09:42:50;5.53;;;2.72;;
63157;SDS011;49381;49.338;8.794;2022-07-06T09:44:50;7.32;;;3.22;;
63157;SDS011;49381;49.338;8.794;2022-07-06T09:46:50;6.32;;;3.10;;
63157;SDS011;49381;49.338;8.794;2022-07-06T09:48:52;6.97;;;3.03;;
63157;SDS011;49381;49.338;8.794;2022-07-06T09:50:53;8.55;;;3.08;;
63157;SDS011;49381;49.338;8.794;2022-07-06T09:52:55;4.88;;;3.20;;
63157;SDS011;49381;49.338;8.794;2022-07-06T09:54:55;5.72;;;2.78;;
63157;SDS011;49381;49.338;8.794;2022-07-06T09:56:57;6.03;;;3.10;;
63157;SDS011;49381;49.338;8.794;2022-07-06T09:58:57;8.55;;;3.05;;
63157;SDS011;49381;49.338;8.794;2022-07-06T10:00:58;8.15;;;2.97;;
63157;SDS011;49381;49.338;8.794;2022-07-06T10:02:58;6.20;;;2.45;;
63157;SDS011;49381;49.338;8.794;2022-07-06T10:04:59;5.45;;;3.10;;
63157;SDS011;49381;49.338;8.794;2022-07-06T10:07:01;4.50;;;2.60;;
63157;SDS011;49381;49.338;8.794;2022-07-06T10:09:02;5.47;;;3.00;;
63157;SDS011;49381;49.338;8.794;2022-07-06T10:11:05;7.60;;;3.00;;
63157;SDS011;49381;49.338;8.794;2022-07-06T10:13:08;4.53;;;2.88;;
63157;SDS011;49381;49.338;8.794;2022-07-06T10:15:09;7.47;;;2.95;;
63157;SDS011;49381;49.338;8.794;2022-07-06T10:17:10;6.15;;;2.85;;
63157;SDS011;49381;49.338;8.794;2022-07-06T10:19:11;5.07;;;2.72;;
63157;SDS011;49381;49.338;8.794;2022-07-06T10:21:13;6.63;;;2.83;;
63157;SDS011;49381;49.338;8.794;2022-07-06T10:23:15;5.95;;;2.92;;
63157;SDS011;49381;49.338;8.794;2022-07-06T10:25:17;5.90;;;2.80;;
63157;SDS011;49381;49.338;8.794;2022-07-06T10:27:18;5.57;;;3.42;;
63157;SDS011;49381;49.338;8.794;2022-07-06T10:29:19;7.40;;;2.72;;
63157;SDS011;49381;49.338;8.794;2022-07-06T10:31:20;16.77;;;7.80;;
63157;SDS011;49381;49.338;8.794;2022-07-06T10:33:21;7.60;;;3.22;;
63157;SDS011;49381;49.338;8.794;2022-07-06T10:35:22;11.77;;;3.35;;
63157;SDS011;49381;49.338;8.794;2022-07-06T10:37:23;6.18;;;2.80;;
63157;SDS011;49381;49.338;8.794;2022-07-06T10:39:34;4.47;;;2.55;;
63157;SDS011;49381;49.338;8.794;2022-07-06T10:41:35;4.07;;;2.75;;
63157;SDS011;49381;49.338;8.794;2022-07-06T10:43:36;8.18;;;2.45;;
63157;SDS011;49381;49.338;8.794;2022-07-06T10:45:51;3.67;;;2.20;;
63157;SDS011;49381;49.338;8.794;2022-07-06T10:50:16;5.35;;;2.83;;
63157;SDS011;49381;49.338;8.794;2022-07-06T10:52:18;5.32;;;2.80;;
63157;SDS011;49381;49.338;8.794;2022-07-06T10:54:20;8.32;;;2.90;;
63157;SDS011;49381;49.338;8.794;2022-07-06T10:56:20;5.45;;;3.17;;
63157;SDS011;49381;49.338;8.794;2022-07-06T11:00:55;8.48;;;2.28;;
63157;SDS011;49381;49.338;8.794;2022-07-06T11:02:55;5.97;;;2.83;;
63157;SDS011;49381;49.338;8.794;2022-07-06T11:04:56;5.85;;;2.22;;
63157;SDS011;49381;49.338;8.794;2022-07-06T11:06:56;5.22;;;2.50;;
63157;SDS011;49381;49.338;8.794;2022-07-06T11:09:08;6.88;;;2.45;;
63157;SDS011;49381;49.338;8.794;2022-07-06T11:11:12;5.57;;;2.10;;
63157;SDS011;49381;49.338;8.794;2022-07-06T11:13:24;6.25;;;2.63;;
63157;SDS011;49381;49.338;8.794;2022-07-06T11:17:51;3.88;;;2.08;;
63157;SDS011;49381;49.338;8.794;2022-07-06T11:20:11;5.80;;;2.33;;
63157;SDS011;49381;49.338;8.794;2022-07-06T11:22:12;4.50;;;2.33;;
63157;SDS011;49381;49.338;8.794;2022-07-06T11:24:16;7.13;;;2.40;;
63157;SDS011;49381;49.338;8.794;2022-07-06T11:26:18;5.95;;;2.38;;
63157;SDS011;49381;49.338;8.794;2022-07-06T11:28:19;5.13;;;1.90;;
63157;SDS011;49381;49.338;8.794;2022-07-06T11:30:20;7.20;;;2.45;;
63157;SDS011;49381;49.338;8.794;2022-07-06T11:32:23;8.27;;;2.70;;
63157;SDS011;49381;49.338;8.794;2022-07-06T11:34:26;7.05;;;2.80;;
63157;SDS011;49381;49.338;8.794;2022-07-06T11:36:27;6.25;;;2.10;;
63157;SDS011;49381;49.338;8.794;2022-07-06T11:38:28;5.72;;;2.15;;
63157;SDS011;49381;49.338;8.794;2022-07-06T11:40:28;4.75;;;2.13;;
63157;SDS011;49381;49.338;8.794;2022-07-06T11:42:28;4.75;;;2.17;;
63157;SDS011;49381;49.338;8.794;2022-07-06T11:44:29;4.57;;;2.40;;
63157;SDS011;49381;49.338;8.794;2022-07-06T11:46:30;5.60;;;2.15;;
63157;SDS011;49381;49.338;8.794;2022-07-06T11:48:32;5.78;;;2.38;;
63157;SDS011;49381;49.338;8.794;2022-07-06T11:50:33;6.18;;;2.47;;
63157;SDS011;49381;49.338;8.794;2022-07-06T11:52:34;6.40;;;2.20;;
63157;SDS011;49381;49.338;8.794;2022-07-06T11:54:34;9.48;;;2.47;;
63157;SDS011;49381;49.338;8.794;2022-07-06T11:56:34;6.93;;;2.40;;
63157;SDS011;49381;49.338;8.794;2022-07-06T11:58:35;5.10;;;2.63;;
63157;SDS011;49381;49.338;8.794;2022-07-06T12:00:38;4.85;;;2.33;;
63157;SDS011;49381;49.338;8.794;2022-07-06T12:02:38;4.13;;;2.22;;
63157;SDS011;49381;49.338;8.794;2022-07-06T12:04:39;4.45;;;2.20;;
63157;SDS011;49381;49.338;8.794;2022-07-06T12:06:44;6.47;;;1.95;;
63157;SDS011;49381;49.338;8.794;2022-07-06T12:08:45;3.35;;;1.58;;
63157;SDS011;49381;49.338;8.794;2022-07-06T12:10:46;2.28;;;1.73;;
63157;SDS011;49381;49.338;8.794;2022-07-06T12:12:47;3.55;;;1.60;;
63157;SDS011;49381;49.338;8.794;2022-07-06T12:14:47;5.90;;;1.67;;
63157;SDS011;49381;49.338;8.794;2022-07-06T12:16:48;4.82;;;1.90;;